sensor_id;sensor_type;location;lat;lon;timestamp;temperature;humidity
68257;DHT22;55069;51.568;4.656;2023-08-24T00:00:38;18.22;80.59
68257;DHT22;55069;51.568;4.656;2023-08-24T00:03:04;18.22;80.37
68257;DHT22;55069;51.568;4.656;2023-08-24T00:05:33;18.20;80.31
68257;DHT22;55069;51.568;4.656;2023-08-24T00:07:59;18.20;80.61
68257;DHT22;55069;51.568;4.656;2023-08-24T00:10:25;18.17;80.85
68257;DHT22;55069;51.568;4.656;2023-08-24T00:12:51;18.17;80.78
68257;DHT22;55069;51.568;4.656;2023-08-24T00:15:16;18.17;80.41
68257;DHT22;55069;51.568;4.656;2023-08-24T00:17:42;18.16;80.05
68257;DHT22;55069;51.568;4.656;2023-08-24T00:20:07;18.20;80.18
68257;DHT22;55069;51.568;4.656;2023-08-24T00:22:37;18.16;80.56
68257;DHT22;55069;51.568;4.656;2023-08-24T00:25:03;18.14;80.08
68257;DHT22;55069;51.568;4.656;2023-08-24T00:27:28;18.12;80.77
68257;DHT22;55069;51.568;4.656;2023-08-24T00:29:54;18.09;80.84
68257;DHT22;55069;51.568;4.656;2023-08-24T00:32:19;18.09;80.90
68257;DHT22;55069;51.568;4.656;2023-08-24T00:34:45;18.09;80.62
68257;DHT22;55069;51.568;4.656;2023-08-24T00:37:11;18.18;80.47
68257;DHT22;55069;51.568;4.656;2023-08-24T00:39:38;18.23;80.20
68257;DHT22;55069;51.568;4.656;2023-08-24T00:42:04;18.33;80.16
68257;DHT22;55069;51.568;4.656;2023-08-24T00:44:31;18.34;80.38
68257;DHT22;55069;51.568;4.656;2023-08-24T00:46:58;18.40;80.14
68257;DHT22;55069;51.568;4.656;2023-08-24T00:49:24;18.40;80.51
68257;DHT22;55069;51.568;4.656;2023-08-24T00:51:50;18.43;80.67
68257;DHT22;55069;51.568;4.656;2023-08-24T00:54:16;18.41;80.23
68257;DHT22;55069;51.568;4.656;2023-08-24T00:56:43;18.41;80.06
68257;DHT22;55069;51.568;4.656;2023-08-24T00:59:09;18.38;80.50
68257;DHT22;55069;51.568;4.656;2023-08-24T01:01:34;18.38;81.07
68257;DHT22;55069;51.568;4.656;2023-08-24T01:04:00;18.33;81.83
68257;DHT22;55069;51.568;4.656;2023-08-24T01:06:27;18.33;81.94
68257;DHT22;55069;51.568;4.656;2023-08-24T01:08:52;18.33;81.22
68257;DHT22;55069;51.568;4.656;2023-08-24T01:11:37;18.36;81.59
68257;DHT22;55069;51.568;4.656;2023-08-24T01:14:34;18.30;81.44
68257;DHT22;55069;51.568;4.656;2023-08-24T01:17:03;18.37;81.55
68257;DHT22;55069;51.568;4.656;2023-08-24T01:19:44;18.36;81.62
68257;DHT22;55069;51.568;4.656;2023-08-24T01:28:01;18.37;81.32
68257;DHT22;55069;51.568;4.656;2023-08-24T01:30:29;18.41;81.34
68257;DHT22;55069;51.568;4.656;2023-08-24T01:32:56;18.38;82.35
68257;DHT22;55069;51.568;4.656;2023-08-24T01:35:21;18.43;81.96
68257;DHT22;55069;51.568;4.656;2023-08-24T01:37:47;18.43;81.55
68257;DHT22;55069;51.568;4.656;2023-08-24T01:43:18;18.43;81.47
68257;DHT22;55069;51.568;4.656;2023-08-24T01:45:46;18.45;80.69
68257;DHT22;55069;51.568;4.656;2023-08-24T01:48:12;18.47;81.87
68257;DHT22;55069;51.568;4.656;2023-08-24T01:50:39;18.41;82.12
68257;DHT22;55069;51.568;4.656;2023-08-24T01:53:05;18.41;81.68
68257;DHT22;55069;51.568;4.656;2023-08-24T01:55:31;18.43;81.98
68257;DHT22;55069;51.568;4.656;2023-08-24T01:57:57;18.43;82.95
68257;DHT22;55069;51.568;4.656;2023-08-24T02:00:23;18.44;82.37
68257;DHT22;55069;51.568;4.656;2023-08-24T02:02:48;18.48;82.60
68257;DHT22;55069;51.568;4.656;2023-08-24T02:05:14;18.44;82.94
68257;DHT22;55069;51.568;4.656;2023-08-24T02:07:40;18.47;83.29
68257;DHT22;55069;51.568;4.656;2023-08-24T02:10:06;18.43;83.46
68257;DHT22;55069;51.568;4.656;2023-08-24T02:12:32;18.40;84.21
68257;DHT22;55069;51.568;4.656;2023-08-24T02:14:58;18.31;84.37
68257;DHT22;55069;51.568;4.656;2023-08-24T02:17:23;18.29;84.26
68257;DHT22;55069;51.568;4.656;2023-08-24T02:19:49;18.33;85.05
68257;DHT22;55069;51.568;4.656;2023-08-24T02:22:14;18.27;85.25
68257;DHT22;55069;51.568;4.656;2023-08-24T02:24:40;18.27;86.45
68257;DHT22;55069;51.568;4.656;2023-08-24T02:27:06;18.22;86.20
68257;DHT22;55069;51.568;4.656;2023-08-24T02:29:32;18.16;87.01
68257;DHT22;55069;51.568;4.656;2023-08-24T02:31:57;18.10;87.17
68257;DHT22;55069;51.568;4.656;2023-08-24T02:34:23;18.02;87.05
68257;DHT22;55069;51.568;4.656;2023-08-24T02:36:48;17.97;86.75
68257;DHT22;55069;51.568;4.656;2023-08-24T02:39:14;18.00;87.06
68257;DHT22;55069;51.568;4.656;2023-08-24T02:41:39;18.00;87.22
68257;DHT22;55069;51.568;4.656;2023-08-24T02:44:05;17.97;87.55
68257;DHT22;55069;51.568;4.656;2023-08-24T02:46:33;17.96;87.86
68257;DHT22;55069;51.568;4.656;2023-08-24T02:49:00;17.92;88.37
68257;DHT22;55069;51.568;4.656;2023-08-24T02:51:26;17.89;87.41
68257;DHT22;55069;51.568;4.656;2023-08-24T02:53:51;17.82;87.57
68257;DHT22;55069;51.568;4.656;2023-08-24T02:56:19;17.78;87.21
68257;DHT22;55069;51.568;4.656;2023-08-24T02:58:45;17.78;87.77
68257;DHT22;55069;51.568;4.656;2023-08-24T03:01:10;17.75;88.20
68257;DHT22;55069;51.568;4.656;2023-08-24T03:03:38;17.76;87.38
68257;DHT22;55069;51.568;4.656;2023-08-24T03:06:05;17.71;87.29
68257;DHT22;55069;51.568;4.656;2023-08-24T03:08:32;17.74;87.53
68257;DHT22;55069;51.568;4.656;2023-08-24T03:10:59;17.69;87.93
68257;DHT22;55069;51.568;4.656;2023-08-24T03:13:25;17.62;87.28
68257;DHT22;55069;51.568;4.656;2023-08-24T03:15:52;17.62;88.21
68257;DHT22;55069;51.568;4.656;2023-08-24T03:18:18;17.64;87.46
68257;DHT22;55069;51.568;4.656;2023-08-24T03:20:45;17.64;88.38
68257;DHT22;55069;51.568;4.656;2023-08-24T03:23:13;17.57;87.45
68257;DHT22;55069;51.568;4.656;2023-08-24T03:25:40;17.52;87.44
68257;DHT22;55069;51.568;4.656;2023-08-24T03:28:07;17.49;87.91
68257;DHT22;55069;51.568;4.656;2023-08-24T03:30:37;17.48;87.48
68257;DHT22;55069;51.568;4.656;2023-08-24T03:33:03;17.48;88.50
68257;DHT22;55069;51.568;4.656;2023-08-24T03:35:30;17.49;88.32
68257;DHT22;55069;51.568;4.656;2023-08-24T03:37:56;17.48;88.37
68257;DHT22;55069;51.568;4.656;2023-08-24T03:40:23;17.44;87.69
68257;DHT22;55069;51.568;4.656;2023-08-24T03:42:48;17.44;88.06
68257;DHT22;55069;51.568;4.656;2023-08-24T03:45:14;17.49;87.98
68257;DHT22;55069;51.568;4.656;2023-08-24T03:47:40;17.51;87.92
68257;DHT22;55069;51.568;4.656;2023-08-24T03:50:07;17.47;87.88
68257;DHT22;55069;51.568;4.656;2023-08-24T03:52:33;17.44;87.05
68257;DHT22;55069;51.568;4.656;2023-08-24T03:54:58;17.45;87.57
68257;DHT22;55069;51.568;4.656;2023-08-24T03:57:24;17.41;87.38
68257;DHT22;55069;51.568;4.656;2023-08-24T03:59:49;17.39;87.94
68257;DHT22;55069;51.568;4.656;2023-08-24T04:02:16;17.39;88.05
68257;DHT22;55069;51.568;4.656;2023-08-24T04:04:41;17.41;87.82
68257;DHT22;55069;51.568;4.656;2023-08-24T04:07:07;17.39;87.37
68257;DHT22;55069;51.568;4.656;2023-08-24T04:09:32;17.39;87.41
68257;DHT22;55069;51.568;4.656;2023-08-24T04:11:58;17.38;87.17
68257;DHT22;55069;51.568;4.656;2023-08-24T04:14:23;17.34;86.79
68257;DHT22;55069;51.568;4.656;2023-08-24T04:16:49;17.41;87.08
68257;DHT22;55069;51.568;4.656;2023-08-24T04:19:14;17.39;87.00
68257;DHT22;55069;51.568;4.656;2023-08-24T04:21:40;17.35;87.15
68257;DHT22;55069;51.568;4.656;2023-08-24T04:24:06;17.38;86.84
68257;DHT22;55069;51.568;4.656;2023-08-24T04:26:31;17.37;86.52
68257;DHT22;55069;51.568;4.656;2023-08-24T04:28:57;17.37;86.69
68257;DHT22;55069;51.568;4.656;2023-08-24T04:31:22;17.37;86.24
68257;DHT22;55069;51.568;4.656;2023-08-24T04:33:48;17.34;86.44
68257;DHT22;55069;51.568;4.656;2023-08-24T04:36:13;17.37;86.68
68257;DHT22;55069;51.568;4.656;2023-08-24T04:38:39;17.47;86.68
68257;DHT22;55069;51.568;4.656;2023-08-24T04:41:07;17.55;86.29
68257;DHT22;55069;51.568;4.656;2023-08-24T04:43:33;17.66;86.00
68257;DHT22;55069;51.568;4.656;2023-08-24T04:45:59;17.72;85.95
68257;DHT22;55069;51.568;4.656;2023-08-24T04:48:25;17.83;85.93
68257;DHT22;55069;51.568;4.656;2023-08-24T04:50:52;17.87;86.65
68257;DHT22;55069;51.568;4.656;2023-08-24T04:53:19;17.93;87.06
68257;DHT22;55069;51.568;4.656;2023-08-24T04:55:45;17.99;86.78
68257;DHT22;55069;51.568;4.656;2023-08-24T04:58:12;18.02;87.62
68257;DHT22;55069;51.568;4.656;2023-08-24T05:00:38;18.02;87.29
68257;DHT22;55069;51.568;4.656;2023-08-24T05:03:04;17.97;87.04
68257;DHT22;55069;51.568;4.656;2023-08-24T05:05:31;17.92;87.23
68257;DHT22;55069;51.568;4.656;2023-08-24T05:07:58;17.90;88.22
68257;DHT22;55069;51.568;4.656;2023-08-24T05:10:24;17.86;88.08
68257;DHT22;55069;51.568;4.656;2023-08-24T05:12:50;17.81;87.13
68257;DHT22;55069;51.568;4.656;2023-08-24T05:15:15;17.78;86.93
68257;DHT22;55069;51.568;4.656;2023-08-24T05:17:41;17.76;87.36
68257;DHT22;55069;51.568;4.656;2023-08-24T05:20:07;17.79;87.69
68257;DHT22;55069;51.568;4.656;2023-08-24T05:22:39;17.79;88.20
68257;DHT22;55069;51.568;4.656;2023-08-24T05:25:05;17.83;88.67
68257;DHT22;55069;51.568;4.656;2023-08-24T05:27:31;17.79;88.82
68257;DHT22;55069;51.568;4.656;2023-08-24T05:29:56;17.81;88.55
68257;DHT22;55069;51.568;4.656;2023-08-24T05:32:23;17.78;88.37
68257;DHT22;55069;51.568;4.656;2023-08-24T05:34:49;17.89;89.09
68257;DHT22;55069;51.568;4.656;2023-08-24T05:37:14;17.89;89.07
68257;DHT22;55069;51.568;4.656;2023-08-24T05:39:40;17.90;88.78
68257;DHT22;55069;51.568;4.656;2023-08-24T05:42:06;17.92;89.14
68257;DHT22;55069;51.568;4.656;2023-08-24T05:44:32;17.95;88.61
68257;DHT22;55069;51.568;4.656;2023-08-24T05:46:57;18.02;88.52
68257;DHT22;55069;51.568;4.656;2023-08-24T05:49:23;18.03;88.86
68257;DHT22;55069;51.568;4.656;2023-08-24T05:51:52;18.06;88.78
68257;DHT22;55069;51.568;4.656;2023-08-24T05:54:18;18.10;88.69
68257;DHT22;55069;51.568;4.656;2023-08-24T05:56:47;18.07;87.82
68257;DHT22;55069;51.568;4.656;2023-08-24T05:59:13;18.12;88.21
68257;DHT22;55069;51.568;4.656;2023-08-24T06:01:39;18.16;87.65
68257;DHT22;55069;51.568;4.656;2023-08-24T06:04:07;18.18;88.40
68257;DHT22;55069;51.568;4.656;2023-08-24T06:06:33;18.26;88.36
68257;DHT22;55069;51.568;4.656;2023-08-24T06:08:58;18.30;87.97
68257;DHT22;55069;51.568;4.656;2023-08-24T06:11:24;18.33;87.49
68257;DHT22;55069;51.568;4.656;2023-08-24T06:13:49;18.37;87.39
68257;DHT22;55069;51.568;4.656;2023-08-24T06:16:17;18.43;87.41
68257;DHT22;55069;51.568;4.656;2023-08-24T06:18:42;18.45;87.49
68257;DHT22;55069;51.568;4.656;2023-08-24T06:21:08;18.50;86.71
68257;DHT22;55069;51.568;4.656;2023-08-24T06:23:33;18.55;86.05
68257;DHT22;55069;51.568;4.656;2023-08-24T06:25:59;18.58;85.87
68257;DHT22;55069;51.568;4.656;2023-08-24T06:28:26;18.65;86.24
68257;DHT22;55069;51.568;4.656;2023-08-24T06:30:52;18.72;86.70
68257;DHT22;55069;51.568;4.656;2023-08-24T06:33:20;18.87;86.68
68257;DHT22;55069;51.568;4.656;2023-08-24T06:35:45;18.91;86.48
68257;DHT22;55069;51.568;4.656;2023-08-24T06:38:11;18.98;86.79
68257;DHT22;55069;51.568;4.656;2023-08-24T06:40:36;19.06;86.57
68257;DHT22;55069;51.568;4.656;2023-08-24T06:43:02;19.10;86.20
68257;DHT22;55069;51.568;4.656;2023-08-24T06:45:28;19.18;85.95
68257;DHT22;55069;51.568;4.656;2023-08-24T06:47:53;19.37;85.30
68257;DHT22;55069;51.568;4.656;2023-08-24T06:50:20;19.43;85.50
68257;DHT22;55069;51.568;4.656;2023-08-24T06:52:45;19.51;85.47
68257;DHT22;55069;51.568;4.656;2023-08-24T06:55:11;19.57;85.20
68257;DHT22;55069;51.568;4.656;2023-08-24T06:57:38;19.67;84.73
68257;DHT22;55069;51.568;4.656;2023-08-24T07:00:03;19.78;84.70
68257;DHT22;55069;51.568;4.656;2023-08-24T07:02:33;19.84;84.90
68257;DHT22;55069;51.568;4.656;2023-08-24T07:04:59;19.92;83.75
68257;DHT22;55069;51.568;4.656;2023-08-24T07:07:26;20.02;82.74
68257;DHT22;55069;51.568;4.656;2023-08-24T07:09:51;20.11;82.22
68257;DHT22;55069;51.568;4.656;2023-08-24T07:12:17;20.23;81.55
68257;DHT22;55069;51.568;4.656;2023-08-24T07:14:42;20.36;82.62
68257;DHT22;55069;51.568;4.656;2023-08-24T07:17:08;20.47;82.75
68257;DHT22;55069;51.568;4.656;2023-08-24T07:19:33;20.64;82.17
68257;DHT22;55069;51.568;4.656;2023-08-24T07:21:59;20.87;81.57
68257;DHT22;55069;51.568;4.656;2023-08-24T07:24:24;21.04;80.03
68257;DHT22;55069;51.568;4.656;2023-08-24T07:26:55;21.22;80.59
68257;DHT22;55069;51.568;4.656;2023-08-24T07:29:21;21.31;79.26
68257;DHT22;55069;51.568;4.656;2023-08-24T07:31:47;21.50;80.10
68257;DHT22;55069;51.568;4.656;2023-08-24T07:34:13;21.62;79.08
68257;DHT22;55069;51.568;4.656;2023-08-24T07:36:39;21.82;78.75
68257;DHT22;55069;51.568;4.656;2023-08-24T07:39:04;21.89;78.95
68257;DHT22;55069;51.568;4.656;2023-08-24T07:41:30;22.03;77.84
68257;DHT22;55069;51.568;4.656;2023-08-24T07:43:55;22.13;77.99
68257;DHT22;55069;51.568;4.656;2023-08-24T07:46:21;22.24;76.78
68257;DHT22;55069;51.568;4.656;2023-08-24T07:48:46;22.38;77.00
68257;DHT22;55069;51.568;4.656;2023-08-24T07:51:12;22.48;76.05
68257;DHT22;55069;51.568;4.656;2023-08-24T07:53:37;22.58;77.18
68257;DHT22;55069;51.568;4.656;2023-08-24T07:56:03;22.72;76.45
68257;DHT22;55069;51.568;4.656;2023-08-24T07:58:29;22.88;76.44
68257;DHT22;55069;51.568;4.656;2023-08-24T08:00:56;22.99;77.03
68257;DHT22;55069;51.568;4.656;2023-08-24T08:03:22;23.06;75.62
68257;DHT22;55069;51.568;4.656;2023-08-24T08:05:47;22.99;75.11
68257;DHT22;55069;51.568;4.656;2023-08-24T08:08:14;23.10;76.39
68257;DHT22;55069;51.568;4.656;2023-08-24T08:10:40;23.10;74.85
68257;DHT22;55069;51.568;4.656;2023-08-24T08:13:06;23.20;75.62
68257;DHT22;55069;51.568;4.656;2023-08-24T08:15:32;23.27;75.15
68257;DHT22;55069;51.568;4.656;2023-08-24T08:17:57;23.31;73.37
68257;DHT22;55069;51.568;4.656;2023-08-24T08:20:23;23.41;74.90
68257;DHT22;55069;51.568;4.656;2023-08-24T08:22:49;23.50;75.46
68257;DHT22;55069;51.568;4.656;2023-08-24T08:25:15;23.51;74.72
68257;DHT22;55069;51.568;4.656;2023-08-24T08:27:43;23.51;74.90
68257;DHT22;55069;51.568;4.656;2023-08-24T08:30:09;23.61;74.68
68257;DHT22;55069;51.568;4.656;2023-08-24T08:32:35;23.61;74.18
68257;DHT22;55069;51.568;4.656;2023-08-24T08:35:01;23.66;74.18
68257;DHT22;55069;51.568;4.656;2023-08-24T08:37:27;23.71;74.41
68257;DHT22;55069;51.568;4.656;2023-08-24T08:39:53;23.72;74.27
68257;DHT22;55069;51.568;4.656;2023-08-24T08:42:18;23.75;75.28
68257;DHT22;55069;51.568;4.656;2023-08-24T08:44:45;23.85;73.71
68257;DHT22;55069;51.568;4.656;2023-08-24T08:47:12;23.99;74.53
68257;DHT22;55069;51.568;4.656;2023-08-24T08:49:39;24.06;73.69
68257;DHT22;55069;51.568;4.656;2023-08-24T08:52:05;24.05;73.28
68257;DHT22;55069;51.568;4.656;2023-08-24T08:54:31;24.02;73.09
68257;DHT22;55069;51.568;4.656;2023-08-24T08:56:59;24.09;73.68
68257;DHT22;55069;51.568;4.656;2023-08-24T08:59:27;24.10;73.47
68257;DHT22;55069;51.568;4.656;2023-08-24T09:01:56;24.26;73.37
68257;DHT22;55069;51.568;4.656;2023-08-24T09:04:24;24.27;74.08
68257;DHT22;55069;51.568;4.656;2023-08-24T09:06:50;24.33;74.08
68257;DHT22;55069;51.568;4.656;2023-08-24T09:09:15;24.30;73.97
68257;DHT22;55069;51.568;4.656;2023-08-24T09:11:42;24.20;74.40
68257;DHT22;55069;51.568;4.656;2023-08-24T09:14:12;24.22;74.65
68257;DHT22;55069;51.568;4.656;2023-08-24T09:16:39;24.13;74.09
68257;DHT22;55069;51.568;4.656;2023-08-24T09:19:05;24.14;74.13
68257;DHT22;55069;51.568;4.656;2023-08-24T09:21:36;24.09;74.37
68257;DHT22;55069;51.568;4.656;2023-08-24T09:24:01;24.10;75.05
68257;DHT22;55069;51.568;4.656;2023-08-24T09:26:33;24.10;76.14
68257;DHT22;55069;51.568;4.656;2023-08-24T09:29:10;24.19;75.48
68257;DHT22;55069;51.568;4.656;2023-08-24T09:31:38;24.05;74.43
68257;DHT22;55069;51.568;4.656;2023-08-24T09:34:04;24.10;73.90
68257;DHT22;55069;51.568;4.656;2023-08-24T09:36:35;24.08;74.11
68257;DHT22;55069;51.568;4.656;2023-08-24T09:39:01;24.03;74.80
68257;DHT22;55069;51.568;4.656;2023-08-24T09:41:40;23.98;75.13
68257;DHT22;55069;51.568;4.656;2023-08-24T09:44:06;23.95;74.79
68257;DHT22;55069;51.568;4.656;2023-08-24T09:46:32;23.90;75.45
68257;DHT22;55069;51.568;4.656;2023-08-24T09:48:57;23.82;75.79
68257;DHT22;55069;51.568;4.656;2023-08-24T09:51:26;23.79;75.81
68257;DHT22;55069;51.568;4.656;2023-08-24T09:53:52;23.71;76.05
68257;DHT22;55069;51.568;4.656;2023-08-24T09:56:20;23.69;76.19
68257;DHT22;55069;51.568;4.656;2023-08-24T09:58:49;23.72;75.60
68257;DHT22;55069;51.568;4.656;2023-08-24T10:01:15;23.65;75.99
68257;DHT22;55069;51.568;4.656;2023-08-24T10:03:42;23.65;76.22
68257;DHT22;55069;51.568;4.656;2023-08-24T10:06:10;23.71;76.51
68257;DHT22;55069;51.568;4.656;2023-08-24T10:08:39;23.74;75.69
68257;DHT22;55069;51.568;4.656;2023-08-24T10:11:10;23.76;75.10
68257;DHT22;55069;51.568;4.656;2023-08-24T10:13:56;23.82;74.90
68257;DHT22;55069;51.568;4.656;2023-08-24T10:16:24;23.83;75.53
68257;DHT22;55069;51.568;4.656;2023-08-24T10:18:50;23.85;75.55
68257;DHT22;55069;51.568;4.656;2023-08-24T10:21:17;23.81;75.90
68257;DHT22;55069;51.568;4.656;2023-08-24T10:23:45;23.79;75.26
68257;DHT22;55069;51.568;4.656;2023-08-24T10:26:12;23.74;75.83
68257;DHT22;55069;51.568;4.656;2023-08-24T10:28:38;23.68;76.11
68257;DHT22;55069;51.568;4.656;2023-08-24T10:31:04;23.68;76.15
68257;DHT22;55069;51.568;4.656;2023-08-24T10:33:31;23.62;76.21
68257;DHT22;55069;51.568;4.656;2023-08-24T10:35:59;23.54;76.46
68257;DHT22;55069;51.568;4.656;2023-08-24T10:38:29;23.50;76.39
68257;DHT22;55069;51.568;4.656;2023-08-24T10:41:01;23.44;77.19
68257;DHT22;55069;51.568;4.656;2023-08-24T10:43:29;23.37;78.26
68257;DHT22;55069;51.568;4.656;2023-08-24T10:48:25;23.37;78.12
68257;DHT22;55069;51.568;4.656;2023-08-24T10:53:59;23.33;78.47
68257;DHT22;55069;51.568;4.656;2023-08-24T10:56:32;23.41;78.59
68257;DHT22;55069;51.568;4.656;2023-08-24T10:59:19;23.54;77.61
68257;DHT22;55069;51.568;4.656;2023-08-24T11:04:19;23.58;76.81
68257;DHT22;55069;51.568;4.656;2023-08-24T11:06:58;23.51;77.42
68257;DHT22;55069;51.568;4.656;2023-08-24T11:09:25;23.53;76.97
68257;DHT22;55069;51.568;4.656;2023-08-24T11:12:01;23.48;78.33
68257;DHT22;55069;51.568;4.656;2023-08-24T11:14:29;23.51;78.44
68257;DHT22;55069;51.568;4.656;2023-08-24T11:17:16;23.53;78.69
68257;DHT22;55069;51.568;4.656;2023-08-24T11:19:54;23.58;78.45
68257;DHT22;55069;51.568;4.656;2023-08-24T11:22:20;23.65;78.82
68257;DHT22;55069;51.568;4.656;2023-08-24T11:24:49;23.83;79.21
68257;DHT22;55069;51.568;4.656;2023-08-24T11:27:14;24.08;79.37
68257;DHT22;55069;51.568;4.656;2023-08-24T11:29:42;24.31;79.91
68257;DHT22;55069;51.568;4.656;2023-08-24T11:32:07;24.36;78.70
68257;DHT22;55069;51.568;4.656;2023-08-24T11:34:34;24.50;77.32
68257;DHT22;55069;51.568;4.656;2023-08-24T11:37:00;24.68;78.05
68257;DHT22;55069;51.568;4.656;2023-08-24T11:39:26;24.91;77.68
68257;DHT22;55069;51.568;4.656;2023-08-24T11:42:04;25.02;76.80
68257;DHT22;55069;51.568;4.656;2023-08-24T11:44:45;24.71;76.76
68257;DHT22;55069;51.568;4.656;2023-08-24T11:47:14;24.81;76.94
68257;DHT22;55069;51.568;4.656;2023-08-24T11:49:40;24.85;76.16
68257;DHT22;55069;51.568;4.656;2023-08-24T11:52:06;24.95;74.78
68257;DHT22;55069;51.568;4.656;2023-08-24T11:54:36;25.02;73.93
68257;DHT22;55069;51.568;4.656;2023-08-24T11:57:07;25.26;76.35
68257;DHT22;55069;51.568;4.656;2023-08-24T11:59:34;25.56;73.28
68257;DHT22;55069;51.568;4.656;2023-08-24T12:02:00;25.70;73.08
68257;DHT22;55069;51.568;4.656;2023-08-24T12:04:26;25.81;71.98
68257;DHT22;55069;51.568;4.656;2023-08-24T12:06:52;26.00;71.59
68257;DHT22;55069;51.568;4.656;2023-08-24T12:09:17;26.25;70.26
68257;DHT22;55069;51.568;4.656;2023-08-24T12:11:43;26.49;69.56
68257;DHT22;55069;51.568;4.656;2023-08-24T12:14:16;26.72;69.34
68257;DHT22;55069;51.568;4.656;2023-08-24T12:16:42;26.94;68.33
68257;DHT22;55069;51.568;4.656;2023-08-24T12:19:08;26.96;67.38
68257;DHT22;55069;51.568;4.656;2023-08-24T12:21:34;26.94;66.97
68257;DHT22;55069;51.568;4.656;2023-08-24T12:24:02;27.01;66.03
68257;DHT22;55069;51.568;4.656;2023-08-24T12:26:32;26.80;65.92
68257;DHT22;55069;51.568;4.656;2023-08-24T12:29:04;26.67;66.63
68257;DHT22;55069;51.568;4.656;2023-08-24T12:31:31;26.75;66.51
68257;DHT22;55069;51.568;4.656;2023-08-24T12:33:59;26.48;66.31
68257;DHT22;55069;51.568;4.656;2023-08-24T12:36:25;26.64;67.13
68257;DHT22;55069;51.568;4.656;2023-08-24T12:38:51;26.60;67.95
68257;DHT22;55069;51.568;4.656;2023-08-24T12:41:17;26.61;67.17
68257;DHT22;55069;51.568;4.656;2023-08-24T12:43:42;26.61;67.27
68257;DHT22;55069;51.568;4.656;2023-08-24T12:46:08;26.64;67.22
68257;DHT22;55069;51.568;4.656;2023-08-24T12:48:34;26.83;67.29
68257;DHT22;55069;51.568;4.656;2023-08-24T12:51:00;26.72;66.73
68257;DHT22;55069;51.568;4.656;2023-08-24T12:53:25;26.69;67.65
68257;DHT22;55069;51.568;4.656;2023-08-24T12:55:51;26.64;67.08
68257;DHT22;55069;51.568;4.656;2023-08-24T12:58:16;26.70;67.65
68257;DHT22;55069;51.568;4.656;2023-08-24T13:00:44;26.76;67.60
68257;DHT22;55069;51.568;4.656;2023-08-24T13:03:09;26.66;67.42
68257;DHT22;55069;51.568;4.656;2023-08-24T13:05:36;26.73;67.58
68257;DHT22;55069;51.568;4.656;2023-08-24T13:08:02;26.72;67.00
68257;DHT22;55069;51.568;4.656;2023-08-24T13:10:27;26.79;67.75
68257;DHT22;55069;51.568;4.656;2023-08-24T13:12:53;26.83;67.12
68257;DHT22;55069;51.568;4.656;2023-08-24T13:15:19;26.84;67.54
68257;DHT22;55069;51.568;4.656;2023-08-24T13:17:46;26.88;67.68
68257;DHT22;55069;51.568;4.656;2023-08-24T13:20:11;26.84;68.39
68257;DHT22;55069;51.568;4.656;2023-08-24T13:22:37;26.83;68.10
68257;DHT22;55069;51.568;4.656;2023-08-24T13:25:03;26.76;68.50
68257;DHT22;55069;51.568;4.656;2023-08-24T13:27:28;26.50;68.32
68257;DHT22;55069;51.568;4.656;2023-08-24T13:29:54;26.48;69.23
68257;DHT22;55069;51.568;4.656;2023-08-24T13:32:22;26.55;69.25
68257;DHT22;55069;51.568;4.656;2023-08-24T13:34:47;26.61;68.89
68257;DHT22;55069;51.568;4.656;2023-08-24T13:37:13;26.82;68.19
68257;DHT22;55069;51.568;4.656;2023-08-24T13:39:38;26.96;68.54
68257;DHT22;55069;51.568;4.656;2023-08-24T13:42:04;27.00;68.61
68257;DHT22;55069;51.568;4.656;2023-08-24T13:44:29;26.97;68.71
68257;DHT22;55069;51.568;4.656;2023-08-24T13:46:55;27.11;67.59
68257;DHT22;55069;51.568;4.656;2023-08-24T13:49:20;27.07;67.13
68257;DHT22;55069;51.568;4.656;2023-08-24T13:51:46;27.08;67.29
68257;DHT22;55069;51.568;4.656;2023-08-24T13:54:16;27.23;67.42
68257;DHT22;55069;51.568;4.656;2023-08-24T13:56:46;27.08;67.36
68257;DHT22;55069;51.568;4.656;2023-08-24T13:59:13;27.04;67.77
68257;DHT22;55069;51.568;4.656;2023-08-24T14:01:39;27.07;67.46
68257;DHT22;55069;51.568;4.656;2023-08-24T14:04:05;26.75;68.00
68257;DHT22;55069;51.568;4.656;2023-08-24T14:06:31;26.83;67.87
68257;DHT22;55069;51.568;4.656;2023-08-24T14:08:57;26.88;67.86
68257;DHT22;55069;51.568;4.656;2023-08-24T14:11:23;26.86;67.87
68257;DHT22;55069;51.568;4.656;2023-08-24T14:13:49;26.75;67.99
68257;DHT22;55069;51.568;4.656;2023-08-24T14:16:15;26.61;68.08
68257;DHT22;55069;51.568;4.656;2023-08-24T14:18:40;26.70;68.80
68257;DHT22;55069;51.568;4.656;2023-08-24T14:21:06;26.66;68.36
68257;DHT22;55069;51.568;4.656;2023-08-24T14:23:31;26.76;68.33
68257;DHT22;55069;51.568;4.656;2023-08-24T14:25:58;26.48;68.70
68257;DHT22;55069;51.568;4.656;2023-08-24T14:28:23;26.43;68.85
68257;DHT22;55069;51.568;4.656;2023-08-24T14:30:50;26.46;69.05
68257;DHT22;55069;51.568;4.656;2023-08-24T14:33:15;26.35;69.04
68257;DHT22;55069;51.568;4.656;2023-08-24T14:35:50;26.29;68.65
68257;DHT22;55069;51.568;4.656;2023-08-24T14:38:15;26.31;68.65
68257;DHT22;55069;51.568;4.656;2023-08-24T14:40:41;26.40;68.32
68257;DHT22;55069;51.568;4.656;2023-08-24T14:43:06;26.53;68.23
68257;DHT22;55069;51.568;4.656;2023-08-24T14:45:32;26.72;67.86
68257;DHT22;55069;51.568;4.656;2023-08-24T14:47:57;26.75;68.08
68257;DHT22;55069;51.568;4.656;2023-08-24T14:50:23;26.83;67.57
68257;DHT22;55069;51.568;4.656;2023-08-24T14:52:48;26.59;67.97
68257;DHT22;55069;51.568;4.656;2023-08-24T14:55:14;26.60;68.47
68257;DHT22;55069;51.568;4.656;2023-08-24T14:57:39;26.53;68.88
68257;DHT22;55069;51.568;4.656;2023-08-24T15:00:05;26.50;68.92
68257;DHT22;55069;51.568;4.656;2023-08-24T15:02:34;26.39;68.49
68257;DHT22;55069;51.568;4.656;2023-08-24T15:05:01;26.48;68.85
68257;DHT22;55069;51.568;4.656;2023-08-24T15:07:26;26.61;68.84
68257;DHT22;55069;51.568;4.656;2023-08-24T15:09:52;26.77;68.66
68257;DHT22;55069;51.568;4.656;2023-08-24T15:12:19;26.69;68.98
68257;DHT22;55069;51.568;4.656;2023-08-24T15:15:00;26.80;68.47
68257;DHT22;55069;51.568;4.656;2023-08-24T15:17:29;26.96;68.81
68257;DHT22;55069;51.568;4.656;2023-08-24T15:19:55;26.91;68.05
68257;DHT22;55069;51.568;4.656;2023-08-24T15:22:25;26.96;68.02
68257;DHT22;55069;51.568;4.656;2023-08-24T15:24:54;27.08;68.14
68257;DHT22;55069;51.568;4.656;2023-08-24T15:27:20;26.96;68.58
68257;DHT22;55069;51.568;4.656;2023-08-24T15:29:46;27.01;67.50
68257;DHT22;55069;51.568;4.656;2023-08-24T15:32:11;26.79;68.26
68257;DHT22;55069;51.568;4.656;2023-08-24T15:34:39;26.82;68.68
68257;DHT22;55069;51.568;4.656;2023-08-24T15:37:04;26.57;68.26
68257;DHT22;55069;51.568;4.656;2023-08-24T15:39:36;26.56;68.09
68257;DHT22;55069;51.568;4.656;2023-08-24T15:42:03;26.69;67.64
68257;DHT22;55069;51.568;4.656;2023-08-24T15:44:28;26.60;67.99